»·PEaware :: N8680J KHAF-KLAS

N8680J :: KHAF-KLAS

FLIGHT INFORMATION

Flight Status: Arrived
Operator: Privately registered:
United States
More flights under this callsign
Pilot: Tyler J. (19619)
Aircraft: PIPER PA-42-1000 CHEYENNE 400
(PAY4)
More flights by this aircraft type
Origin: KHAF Half Moon Bay
United States
Destination: KLAS McCarran Intl
United States
More flights between these airports :: More routes between these airports
Route: +OAK V244 OAL V105 LUCKY
File this flight plan on PilotEdge
Remarks:
Altitude:
(Current/Filed)
17,000ft
Speed:
(Current/Filed)
270kts
Departed: 22-Jun-19 07:21 PM
Arrived: 22-Jun-19 09:07 PM
Distance/Time
Traveled:
363nm/1:46
Distance/Time
To Go:
Arrived

Flight Plot

Page will automatically refresh every two minutes.


Map Options




Map Legend


Flown Route
Filed Route
Departure Airport
Arrival Airport
Navaid (VOR, NDB)
Fix

Horizontal Profiles

Position Reports

Time Latitude Longitude Heading Altitude Ground
Speed
22-Jun-19 19:09 37.514428 -122.496275 192 71ft 0kts
22-Jun-19 19:10 37.514428 -122.496275 192 71ft 0kts
22-Jun-19 19:11 37.514428 -122.496275 192 71ft 0kts
22-Jun-19 19:12 37.514428 -122.496275 192 71ft 0kts
22-Jun-19 19:13 37.514426 -122.496275 192 71ft 0kts
22-Jun-19 19:14 37.514425 -122.496276 192 71ft 0kts
22-Jun-19 19:15 37.514423 -122.496276 192 71ft 0kts
22-Jun-19 19:16 37.514175 -122.496384 181 71ft 2kts
22-Jun-19 19:17 37.513271 -122.495514 135 71ft 20kts
22-Jun-19 19:18 37.510568 -122.493005 230 71ft 12kts
22-Jun-19 19:19 37.509340 -122.494686 233 71ft 1kts
22-Jun-19 19:20 37.509105 -122.495767 318 71ft 0kts
22-Jun-19 19:21 37.527427 -122.520093 309 723ft 158kts
22-Jun-19 19:22 37.560231 -122.571298 309 1821ft 198kts
22-Jun-19 19:22 37.589921 -122.616045 309 2468ft 195kts
22-Jun-19 19:23 37.624263 -122.667392 309 2482ft 189kts
22-Jun-19 19:25 37.672107 -122.714073 333 2483ft 189kts
22-Jun-19 19:25 37.712884 -122.733404 4 2477ft 192kts
22-Jun-19 19:26 37.758157 -122.697430 48 2485ft 196kts
22-Jun-19 19:28 37.794233 -122.632894 55 2470ft 199kts
22-Jun-19 19:28 37.809234 -122.577659 75 2464ft 200kts
22-Jun-19 19:29 37.822980 -122.509488 75 2498ft 199kts
22-Jun-19 19:30 37.839516 -122.442393 63 2498ft 200kts
22-Jun-19 19:31 37.865802 -122.380211 57 2496ft 200kts
22-Jun-19 19:32 37.896425 -122.321148 53 2573ft 195kts
22-Jun-19 19:33 37.907990 -122.260296 82 3444ft 178kts
22-Jun-19 19:34 37.927767 -122.198941 56 3489ft 199kts
22-Jun-19 19:35 37.953227 -122.134796 64 3485ft 206kts
22-Jun-19 19:36 37.979048 -122.073200 60 4438ft 186kts
22-Jun-19 19:37 37.996027 -122.012240 88 5418ft 205kts
22-Jun-19 19:38 37.999531 -121.935764 85 6296ft 221kts
22-Jun-19 19:39 38.005685 -121.857000 83 7602ft 226kts
22-Jun-19 19:40 38.012488 -121.777082 83 8903ft 230kts
22-Jun-19 19:41 38.019284 -121.695617 84 10203ft 235kts
22-Jun-19 19:42 38.026115 -121.611947 84 11447ft 243kts
22-Jun-19 19:43 38.033274 -121.524607 85 12453ft 255kts
22-Jun-19 19:44 38.040690 -121.433737 85 13459ft 261kts
22-Jun-19 19:45 38.048145 -121.341580 86 14460ft 264kts
22-Jun-19 19:46 38.056026 -121.249196 86 15457ft 262kts
22-Jun-19 19:47 38.064917 -121.156849 86 16461ft 263kts
22-Jun-19 19:48 38.073945 -121.065398 89 17394ft 261kts
22-Jun-19 19:49 38.076042 -120.970157 93 17527ft 279kts
22-Jun-19 19:50 38.078522 -120.868864 91 17515ft 295kts
22-Jun-19 19:51 38.080158 -120.763632 93 17518ft 299kts
22-Jun-19 19:52 38.076008 -120.661013 97 17527ft 298kts
22-Jun-19 19:53 38.064241 -120.557514 103 17531ft 295kts
22-Jun-19 19:54 38.052811 -120.454274 99 17536ft 296kts
22-Jun-19 19:55 38.043955 -120.351130 99 17554ft 292kts
22-Jun-19 19:56 38.035046 -120.249193 99 17556ft 291kts
22-Jun-19 19:57 38.026629 -120.147432 93 17575ft 288kts
22-Jun-19 19:58 38.025773 -120.046041 94 17584ft 287kts
22-Jun-19 19:59 38.017845 -119.945597 97 17669ft 286kts
22-Jun-19 20:00 38.006157 -119.845261 96 17698ft 290kts
22-Jun-19 20:01 37.994577 -119.743654 96 17701ft 291kts
22-Jun-19 20:02 37.983081 -119.641462 96 17706ft 293kts
22-Jun-19 20:03 37.971481 -119.539141 96 17711ft 293kts
22-Jun-19 20:04 37.960421 -119.436790 96 17689ft 292kts
22-Jun-19 20:05 37.949693 -119.334612 96 17696ft 292kts
22-Jun-19 20:06 37.939151 -119.232666 96 17688ft 292kts
22-Jun-19 20:07 37.933335 -119.130288 92 17693ft 291kts
22-Jun-19 20:08 37.929537 -119.027400 90 17694ft 292kts
22-Jun-19 20:09 37.933642 -118.924770 83 17697ft 292kts
22-Jun-19 20:10 37.944801 -118.822643 81 17702ft 292kts
22-Jun-19 20:11 37.954096 -118.723079 85 17705ft 293kts
22-Jun-19 20:12 37.957688 -118.619843 88 17710ft 293kts
22-Jun-19 20:13 37.960447 -118.516433 86 17709ft 293kts
22-Jun-19 20:14 37.967174 -118.413438 84 17715ft 293kts
22-Jun-19 20:15 37.974296 -118.310116 86 17720ft 294kts
22-Jun-19 20:16 37.979036 -118.206910 86 17722ft 294kts
22-Jun-19 20:17 37.984779 -118.103264 85 17720ft 294kts
22-Jun-19 20:18 37.990661 -118.000010 86 17718ft 294kts
22-Jun-19 20:19 37.996324 -117.896449 86 17723ft 294kts
22-Jun-19 20:20 37.987758 -117.795114 112 17715ft 294kts
22-Jun-19 20:21 37.940997 -117.712964 146 17711ft 294kts
22-Jun-19 20:22 37.871552 -117.656087 147 17501ft 298kts
22-Jun-19 20:23 37.800753 -117.602164 148 17488ft 295kts
22-Jun-19 20:24 37.731289 -117.546436 145 17473ft 295kts
22-Jun-19 20:25 37.664721 -117.485952 142 17476ft 294kts
22-Jun-19 20:26 37.599182 -117.424180 143 17472ft 295kts
22-Jun-19 20:27 37.531549 -117.365092 146 17462ft 295kts
22-Jun-19 20:28 37.462470 -117.308961 146 17462ft 295kts
22-Jun-19 20:29 37.393920 -117.252219 145 17455ft 295kts
22-Jun-19 20:30 37.326417 -117.193220 144 17456ft 295kts
22-Jun-19 20:31 37.258950 -117.134319 145 17424ft 295kts
22-Jun-19 20:32 37.190453 -117.076722 146 17401ft 295kts
22-Jun-19 20:33 37.124297 -117.021534 146 17407ft 295kts
22-Jun-19 20:34 37.056504 -116.963439 145 17379ft 295kts
22-Jun-19 20:35 36.988407 -116.905867 146 17358ft 295kts
22-Jun-19 20:36 36.920290 -116.848481 145 17357ft 295kts
22-Jun-19 20:37 36.852161 -116.791078 146 17353ft 295kts
22-Jun-19 20:38 36.784151 -116.733433 144 17353ft 295kts
22-Jun-19 20:39 36.720043 -116.669997 137 17348ft 295kts
22-Jun-19 20:40 36.658503 -116.602927 144 17347ft 294kts
22-Jun-19 20:41 36.590851 -116.545601 145 17348ft 294kts
22-Jun-19 20:42 36.522808 -116.488532 145 17344ft 294kts
22-Jun-19 20:43 36.455142 -116.431881 145 17481ft 290kts
22-Jun-19 20:44 36.388075 -116.375680 146 17498ft 292kts
22-Jun-19 20:45 36.320527 -116.319514 146 17493ft 294kts
22-Jun-19 20:46 36.252394 -116.262568 146 17494ft 294kts
22-Jun-19 20:47 36.183643 -116.204853 146 16766ft 305kts
22-Jun-19 20:48 36.111840 -116.146197 145 15359ft 305kts
22-Jun-19 20:49 36.042827 -116.085605 145 13414ft 295kts
22-Jun-19 20:50 36.014926 -115.999873 83 11517ft 285kts
22-Jun-19 20:51 36.025793 -115.904209 80 9617ft 277kts
22-Jun-19 20:52 36.037591 -115.812647 80 7719ft 264kts
22-Jun-19 20:53 36.048172 -115.731488 80 7484ft 218kts
22-Jun-19 20:54 36.057382 -115.660842 80 7487ft 201kts
22-Jun-19 20:55 36.066065 -115.593705 83 7487ft 196kts
22-Jun-19 20:56 36.061998 -115.521683 91 7480ft 219kts
22-Jun-19 20:57 36.065266 -115.445409 83 7471ft 222kts
22-Jun-19 20:58 36.072873 -115.370647 81 7377ft 220kts
22-Jun-19 20:59 36.081391 -115.298345 81 6001ft 209kts
22-Jun-19 21:00 36.085527 -115.228099 89 4371ft 189kts
22-Jun-19 21:01 36.089762 -115.174980 38 3830ft 133kts
22-Jun-19 21:02 36.106761 -115.215454 231 3991ft 195kts
22-Jun-19 21:03 36.066440 -115.229675 119 3719ft 114kts
22-Jun-19 21:04 36.064956 -115.185440 86 2701ft 104kts
22-Jun-19 21:05 36.084647 -115.164901 26 2185ft 60kts
22-Jun-19 21:06 36.089288 -115.163169 294 2185ft 0kts
22-Jun-19 21:07 36.089289 -115.163171 294 2185ft 0kts
22-Jun-19 21:08 36.091627 -115.163342 23 2185ft 15kts
22-Jun-19 21:09 36.095808 -115.161007 25 2185ft 16kts
22-Jun-19 21:10 36.099143 -115.160216 15 2185ft 4kts
22-Jun-19 21:11 36.099703 -115.160298 2 2185ft 0kts

Navigation Log

Ident Type
Flight plan parsing failed, navigation log unavailable